Time;durP1;ratioP1;P1;durP2;ratioP2;P2;SDS_P1;SDS_P2;PMS_P1;PMS_P2;Temp;Humidity;BMP_temperature;BMP_pressure;BME280_temperature;BME280_humidity;BME280_pressure;Samples;Min_cycle;Max_cycle;Signal;HPM_P1;HPM_P2
2023/11/04 00:00:15;;;;;;;0.20;0.20;;;;;;;7.97;59.61;97903.47;5286013;27;20073;-92
2023/11/04 00:02:41;;;;;;;0.43;0.43;;;;;;;8.09;59.63;97909.81;5286181;27;20079;-92
2023/11/04 00:05:07;;;;;;;0.20;0.20;;;;;;;8.11;59.62;97926.94;5285336;27;27793;-92
2023/11/04 00:07:32;;;;;;;0.10;0.10;;;;;;;8.19;59.63;97934.31;5285940;27;20394;-92
2023/11/04 00:09:59;;;;;;;10.65;3.33;;;;;;;8.20;59.63;97939.44;5285750;27;20076;-92
2023/11/04 00:12:24;;;;;;;7.03;1.80;;;;;;;8.18;59.63;97951.63;5286163;27;20060;-93
2023/11/04 00:14:50;;;;;;;0.62;0.62;;;;;;;8.19;59.63;97942.94;5286179;27;20420;-91
2023/11/04 00:17:15;;;;;;;0.75;0.70;;;;;;;7.99;59.62;97945.69;5285842;27;20354;-92
2023/11/04 00:19:40;;;;;;;6.82;2.55;;;;;;;7.94;59.62;97950.28;5286009;27;20119;-93
2023/11/04 00:22:06;;;;;;;3.30;0.90;;;;;;;7.98;59.61;97952.63;5285726;27;20108;-92
2023/11/04 00:24:32;;;;;;;6.32;2.40;;;;;;;8.00;59.62;97955.16;5286022;27;20425;-90
2023/11/04 00:26:59;;;;;;;1.45;1.30;;;;;;;7.94;59.62;97958.87;5285316;27;20130;-93
2023/11/04 00:29:24;;;;;;;1.98;0.60;;;;;;;8.13;59.63;97953.63;5281398;27;20065;-92
2023/11/04 00:31:49;;;;;;;2.65;0.80;;;;;;;8.34;59.64;97950.87;5300016;27;20091;-92
2023/11/04 00:34:15;;;;;;;0.00;0.00;;;;;;;8.34;59.64;97945.69;5282132;27;20073;-92
2023/11/04 00:36:40;;;;;;;0.47;0.47;;;;;;;7.95;59.62;97954.53;5282496;27;20143;-93
2023/11/04 00:39:06;;;;;;;0.52;0.43;;;;;;;7.78;59.61;97951.94;5285361;27;20073;-92
2023/11/04 00:41:32;;;;;;;0.10;0.10;;;;;;;7.70;59.61;97941.97;5289788;27;20080;-91
2023/11/04 00:43:58;;;;;;;0.52;0.52;;;;;;;7.99;59.63;97936.16;5300935;27;20120;-93
2023/11/04 00:46:25;;;;;;;0.00;0.00;;;;;;;7.85;59.61;97936.03;5300189;27;20049;-92
2023/11/04 00:48:50;;;;;;;2.08;1.10;;;;;;;8.07;59.62;97940.16;5300573;27;20049;-92
2023/11/04 00:51:16;;;;;;;0.77;0.52;;;;;;;7.90;59.61;97941.00;5300582;27;20079;-91
2023/11/04 00:53:41;;;;;;;0.65;0.65;;;;;;;7.95;59.62;97939.84;5300219;27;20072;-92
2023/11/04 00:56:07;;;;;;;0.20;0.20;;;;;;;8.04;59.62;97938.53;5300287;27;20402;-92
2023/11/04 00:58:32;;;;;;;0.37;0.37;;;;;;;7.79;59.61;97944.09;5300286;27;20057;-93
2023/11/04 01:00:58;;;;;;;0.73;0.20;;;;;;;7.80;59.61;97945.78;5300167;27;20091;-90
2023/11/04 01:03:24;;;;;;;0.30;0.30;;;;;;;8.05;59.62;97953.19;5300231;27;20307;-90
2023/11/04 01:05:49;;;;;;;0.00;0.00;;;;;;;8.06;59.62;97947.09;5281656;27;20450;-92
2023/11/04 01:08:15;;;;;;;0.50;0.47;;;;;;;7.82;59.61;97956.91;5300076;27;20108;-92
2023/11/04 01:10:40;;;;;;;0.28;0.28;;;;;;;7.83;59.60;97950.81;5300087;27;20498;-92
2023/11/04 01:13:06;;;;;;;0.25;0.22;;;;;;;8.19;59.63;97942.94;5300342;27;20049;-91
2023/11/04 01:15:32;;;;;;;0.00;0.00;;;;;;;7.91;59.61;97942.66;5282359;27;20052;-92
2023/11/04 01:17:58;;;;;;;0.00;0.00;;;;;;;7.87;59.61;97943.72;5300401;27;20076;-92
2023/11/04 01:20:23;;;;;;;0.20;0.20;;;;;;;7.88;59.61;97940.22;5300199;27;20060;-92
2023/11/04 01:22:49;;;;;;;0.05;0.05;;;;;;;7.90;59.61;97928.87;5300433;27;20057;-91
2023/11/04 01:25:15;;;;;;;0.00;0.00;;;;;;;8.00;59.62;97930.06;5299674;27;20092;-91
2023/11/04 01:27:41;;;;;;;0.00;0.00;;;;;;;8.07;59.63;97928.03;5283312;27;20120;-91
2023/11/04 01:30:07;;;;;;;0.00;0.00;;;;;;;8.07;59.62;97929.78;5300181;27;20095;-93
2023/11/04 01:32:33;;;;;;;0.03;0.03;;;;;;;8.05;59.62;97929.03;5300189;27;20053;-93
2023/11/04 01:34:59;;;;;;;0.00;0.00;;;;;;;8.14;59.64;97934.56;5299590;27;20094;-93
2023/11/04 01:37:25;;;;;;;0.10;0.10;;;;;;;8.24;59.63;97946.13;5299711;27;20111;-92
2023/11/04 01:39:52;;;;;;;0.32;0.32;;;;;;;8.18;59.63;97955.97;5300154;27;20057;-94
2023/11/04 01:42:17;;;;;;;0.10;0.10;;;;;;;8.21;59.63;97948.88;5300259;27;20071;-93
2023/11/04 01:44:42;;;;;;;0.00;0.00;;;;;;;8.26;59.64;97946.03;5299583;27;20100;-93
2023/11/04 01:47:10;;;;;;;0.00;0.00;;;;;;;8.30;59.64;97951.03;5299791;27;20124;-93
2023/11/04 01:49:36;;;;;;;0.37;0.13;;;;;;;8.36;59.64;97955.06;5300102;27;20061;-94
2023/11/04 01:52:02;;;;;;;0.45;0.32;;;;;;;8.34;59.64;97963.84;5300214;27;20049;-94
2023/11/04 01:54:27;;;;;;;0.00;0.00;;;;;;;8.41;59.65;97970.38;5299801;27;20314;-94
2023/11/04 01:56:53;;;;;;;0.30;0.30;;;;;;;8.25;59.64;97960.75;5299924;27;20112;-94
2023/11/04 01:59:18;;;;;;;0.20;0.20;;;;;;;8.41;59.64;97971.22;5300065;27;20179;-93
2023/11/04 02:01:47;;;;;;;0.08;0.08;;;;;;;8.20;59.63;97970.53;5299533;27;26455;-94
2023/11/04 02:04:12;;;;;;;0.00;0.00;;;;;;;8.21;59.63;97972.19;5299281;27;20052;-93
2023/11/04 02:06:38;;;;;;;0.22;0.22;;;;;;;8.23;59.63;97962.59;5299229;27;20061;-94
2023/11/04 02:09:04;;;;;;;0.45;0.45;;;;;;;8.32;59.64;97964.72;5299840;27;20773;-94
2023/11/04 02:11:30;;;;;;;0.00;0.00;;;;;;;8.41;59.64;97962.59;5300803;27;20060;-93
2023/11/04 02:13:55;;;;;;;0.00;0.00;;;;;;;8.37;59.63;97951.56;5309258;27;20072;-94
2023/11/04 02:16:21;;;;;;;0.10;0.10;;;;;;;8.31;59.64;97947.50;5307640;27;20093;-95
2023/11/04 02:18:46;;;;;;;0.00;0.00;;;;;;;8.39;59.64;97954.06;5301362;27;20107;-94
2023/11/04 02:21:11;;;;;;;0.10;0.10;;;;;;;8.32;59.64;97969.09;5301281;27;20095;-95
2023/11/04 02:23:37;;;;;;;0.00;0.00;;;;;;;8.38;59.64;97973.97;5300346;27;22067;-93
2023/11/04 02:26:03;;;;;;;2.45;0.35;;;;;;;8.50;59.65;97967.31;5300900;27;20084;-93
2023/11/04 02:28:28;;;;;;;0.00;0.00;;;;;;;8.49;59.65;97976.84;5313861;27;20061;-94
2023/11/04 02:30:54;;;;;;;0.00;0.00;;;;;;;8.53;59.66;97970.59;5286431;27;20105;-92
2023/11/04 02:33:20;;;;;;;0.00;0.00;;;;;;;8.44;59.64;97957.25;5286702;27;20112;-93
2023/11/04 02:35:45;;;;;;;0.43;0.43;;;;;;;8.49;59.64;97966.47;5304611;26;20307;-93
2023/11/04 02:38:11;;;;;;;0.00;0.00;;;;;;;8.72;59.66;97967.03;5286305;27;20155;-93
2023/11/04 02:40:36;;;;;;;0.00;0.00;;;;;;;8.73;59.65;97961.75;5286385;27;20112;-92
2023/11/04 02:43:02;;;;;;;0.00;0.00;;;;;;;8.60;59.66;97971.13;5285754;27;25871;-92
2023/11/04 02:45:28;;;;;;;0.00;0.00;;;;;;;8.70;59.66;97971.44;5286433;27;20113;-93
2023/11/04 02:47:54;;;;;;;1.95;0.22;;;;;;;8.72;59.66;97970.44;5286402;27;20170;-91
2023/11/04 02:50:19;;;;;;;0.00;0.00;;;;;;;8.92;59.67;97957.25;5285230;27;26513;-93
2023/11/04 02:52:45;;;;;;;0.00;0.00;;;;;;;8.73;59.66;97960.91;5285890;27;20100;-93
2023/11/04 02:55:10;;;;;;;0.00;0.00;;;;;;;9.03;59.67;97958.44;5286276;27;20061;-94
2023/11/04 02:57:35;;;;;;;0.00;0.00;;;;;;;8.61;59.65;97962.41;5286297;27;20075;-95
2023/11/04 03:00:01;;;;;;;0.00;0.00;;;;;;;8.56;59.65;97965.25;5286199;27;20099;-93
2023/11/04 03:02:26;;;;;;;0.10;0.10;;;;;;;8.70;59.66;97969.69;5286694;27;20112;-92
2023/11/04 03:04:53;;;;;;;0.25;0.25;;;;;;;8.71;59.66;97973.97;5286627;27;20095;-92
2023/11/04 03:07:19;;;;;;;0.17;0.17;;;;;;;8.81;59.66;97976.94;5287119;27;20139;-93
2023/11/04 03:09:44;;;;;;;0.00;0.00;;;;;;;8.80;59.66;97975.25;5286491;27;20330;-94
2023/11/04 03:12:10;;;;;;;0.00;0.00;;;;;;;8.70;59.66;97985.25;5286194;27;21282;-93
2023/11/04 03:14:35;;;;;;;0.00;0.00;;;;;;;9.05;59.69;97990.34;5286250;27;20083;-94
2023/11/04 03:17:01;;;;;;;0.00;0.00;;;;;;;9.00;59.68;97987.16;5286096;27;20193;-94
2023/11/04 03:19:27;;;;;;;0.00;0.00;;;;;;;8.76;59.66;97977.19;5286742;27;20031;-92
2023/11/04 03:21:53;;;;;;;0.00;0.00;;;;;;;8.76;59.66;97961.62;5286149;27;20103;-93
2023/11/04 03:24:19;;;;;;;0.00;0.00;;;;;;;8.83;59.67;97967.31;5286603;27;20073;-92
2023/11/04 03:26:44;;;;;;;0.62;0.62;;;;;;;8.81;59.66;97976.94;5286534;27;20085;-94
2023/11/04 03:29:10;;;;;;;0.00;0.00;;;;;;;9.02;59.67;97982.72;5301914;26;20056;-93
2023/11/04 03:31:36;;;;;;;0.00;0.00;;;;;;;8.95;59.67;97971.81;5286772;27;20235;-94
2023/11/04 03:34:02;;;;;;;0.00;0.00;;;;;;;8.91;59.67;97988.47;5286372;27;20160;-94
2023/11/04 03:36:27;;;;;;;0.00;0.00;;;;;;;8.97;59.68;97993.34;5286797;27;20064;-93
2023/11/04 03:38:53;;;;;;;0.00;0.00;;;;;;;9.14;59.68;97997.63;5285286;27;20091;-95
2023/11/04 03:41:18;;;;;;;0.00;0.00;;;;;;;8.96;59.67;97990.81;5286057;27;25712;-94
2023/11/04 03:43:43;;;;;;;0.10;0.10;;;;;;;9.02;59.67;97995.72;5286507;27;20112;-95
2023/11/04 03:46:09;;;;;;;0.00;0.00;;;;;;;8.97;59.67;97995.09;5285361;27;20081;-94
2023/11/04 03:48:35;;;;;;;0.00;0.00;;;;;;;8.89;59.68;98001.53;5294033;27;20104;-94
2023/11/04 03:51:00;;;;;;;0.85;0.52;;;;;;;9.03;59.67;98002.56;5305112;26;20110;-92
2023/11/04 03:53:25;;;;;;;0.00;0.00;;;;;;;8.98;59.68;97995.00;5286458;27;20072;-95
2023/11/04 03:55:51;;;;;;;0.35;0.35;;;;;;;8.86;59.66;97996.50;5286365;27;20125;-94
2023/11/04 03:58:16;;;;;;;0.00;0.00;;;;;;;8.95;59.67;98005.56;5286131;27;24502;-94
2023/11/04 04:00:42;;;;;;;0.08;0.08;;;;;;;9.05;59.68;98001.56;5303385;27;20693;-94
2023/11/04 04:03:07;;;;;;;0.00;0.00;;;;;;;9.12;59.67;98002.06;5286382;27;20073;-93
2023/11/04 04:05:33;;;;;;;0.00;0.00;;;;;;;9.20;59.69;98010.25;5284885;27;25867;-93
2023/11/04 04:07:58;;;;;;;0.00;0.00;;;;;;;9.30;59.69;98005.44;5303258;27;20060;-94
2023/11/04 04:10:25;;;;;;;0.00;0.00;;;;;;;9.36;59.70;98008.53;5285568;27;20052;-93
2023/11/04 04:12:51;;;;;;;0.10;0.10;;;;;;;9.48;59.70;97994.88;5285767;27;20072;-92
2023/11/04 04:15:17;;;;;;;0.43;0.13;;;;;;;9.32;59.69;97988.84;5285475;27;20064;-94
2023/11/04 04:17:42;;;;;;;0.00;0.00;;;;;;;9.29;59.69;98003.75;5284920;27;20122;-93
2023/11/04 04:20:11;;;;;;;0.00;0.00;;;;;;;9.42;59.70;98021.16;5284840;27;20118;-94
2023/11/04 04:22:37;;;;;;;0.00;0.00;;;;;;;9.46;59.70;98022.69;5304513;27;20111;-93
2023/11/04 04:25:04;;;;;;;0.00;0.00;;;;;;;9.63;59.70;98013.94;5303638;26;20065;-93
2023/11/04 04:27:30;;;;;;;0.05;0.05;;;;;;;9.62;59.71;98019.22;5289823;26;20420;-92
2023/11/04 04:29:55;;;;;;;0.00;0.00;;;;;;;9.33;59.69;98024.28;5306149;26;20048;-93
2023/11/04 04:32:21;;;;;;;0.00;0.00;;;;;;;9.37;59.70;98024.94;5306165;26;20574;-94
2023/11/04 04:34:46;;;;;;;0.00;0.00;;;;;;;9.51;59.70;98009.44;5307518;26;20070;-93
2023/11/04 04:37:12;;;;;;;0.00;0.00;;;;;;;9.64;59.70;98009.59;5307771;26;20363;-93
2023/11/04 04:39:37;;;;;;;0.00;0.00;;;;;;;9.67;59.71;98019.81;5308159;26;20314;-94
2023/11/04 04:42:03;;;;;;;0.00;0.00;;;;;;;9.63;59.70;98021.75;5308109;26;20060;-95
2023/11/04 04:44:30;;;;;;;0.00;0.00;;;;;;;9.50;59.70;98029.38;5307901;26;20057;-93
2023/11/04 04:46:55;;;;;;;0.08;0.08;;;;;;;9.78;59.71;98023.50;5308088;26;20052;-93
2023/11/04 04:49:21;;;;;;;0.00;0.00;;;;;;;9.77;59.71;98016.63;5307721;26;20104;-93
2023/11/04 04:51:46;;;;;;;0.00;0.00;;;;;;;9.60;59.71;98016.72;5326484;26;20060;-95
2023/11/04 04:54:12;;;;;;;0.00;0.00;;;;;;;9.54;59.70;98024.84;5308329;26;20726;-93
2023/11/04 04:56:37;;;;;;;0.00;0.00;;;;;;;9.52;59.70;98021.50;5307975;26;20118;-94
2023/11/04 04:59:03;;;;;;;0.08;0.05;;;;;;;9.78;59.71;98014.84;5307961;26;20095;-94
2023/11/04 05:01:30;;;;;;;0.00;0.00;;;;;;;9.94;59.74;97997.47;5308227;26;20147;-94
2023/11/04 05:03:55;;;;;;;0.20;0.20;;;;;;;10.05;59.73;97992.50;5308059;26;20470;-93
2023/11/04 05:06:21;;;;;;;0.00;0.00;;;;;;;9.98;59.72;97991.19;5307928;26;20063;-93
2023/11/04 05:08:46;;;;;;;0.00;0.00;;;;;;;9.78;59.71;97996.66;5308028;26;20861;-94
2023/11/04 05:11:12;;;;;;;0.00;0.00;;;;;;;9.70;59.71;97983.25;5306861;26;20410;-94
2023/11/04 05:13:37;;;;;;;0.00;0.00;;;;;;;9.71;59.71;97987.56;5307436;26;20077;-93
2023/11/04 05:16:03;;;;;;;0.00;0.00;;;;;;;9.79;59.71;97977.56;5307992;26;20101;-93
2023/11/04 05:18:29;;;;;;;0.00;0.00;;;;;;;9.68;59.71;97974.72;5302848;26;20048;-92
2023/11/04 05:20:56;;;;;;;0.00;0.00;;;;;;;9.75;59.71;97969.09;5310354;26;20413;-93
2023/11/04 05:23:21;;;;;;;0.10;0.10;;;;;;;9.67;59.71;97958.28;5308097;26;20115;-90
2023/11/04 05:25:48;;;;;;;0.00;0.00;;;;;;;9.82;59.72;97973.03;5308015;26;20070;-94
2023/11/04 05:28:14;;;;;;;0.00;0.00;;;;;;;9.69;59.71;97976.38;5300364;27;20053;-93
2023/11/04 05:30:39;;;;;;;0.00;0.00;;;;;;;9.53;59.71;97966.87;5282462;27;20056;-93
2023/11/04 05:33:05;;;;;;;0.00;0.00;;;;;;;9.54;59.70;97976.34;5282145;27;20105;-94
2023/11/04 05:35:31;;;;;;;0.00;0.00;;;;;;;9.52;59.70;97980.78;5300558;27;20069;-94
2023/11/04 05:37:57;;;;;;;0.05;0.05;;;;;;;9.39;59.69;97971.16;5299810;27;20060;-94
2023/11/04 05:40:22;;;;;;;0.00;0.00;;;;;;;9.45;59.70;97984.62;5281935;27;20483;-95
2023/11/04 05:42:48;;;;;;;0.13;0.13;;;;;;;9.46;59.70;97981.16;5281469;27;27343;-93
2023/11/04 05:45:14;;;;;;;0.08;0.08;;;;;;;9.54;59.70;97984.13;5300552;27;20057;-91
2023/11/04 05:47:40;;;;;;;0.05;0.05;;;;;;;9.39;59.69;97977.19;5301533;27;20426;-93
2023/11/04 05:50:06;;;;;;;0.00;0.00;;;;;;;9.43;59.70;97973.50;5301077;27;20121;-92
2023/11/04 05:52:31;;;;;;;0.08;0.08;;;;;;;9.59;59.71;97980.44;5301439;27;20080;-94
2023/11/04 05:54:57;;;;;;;0.60;0.47;;;;;;;9.59;59.71;97978.69;5300705;27;23683;-93
2023/11/04 05:57:22;;;;;;;0.15;0.15;;;;;;;9.41;59.69;97983.13;5301355;27;20060;-93
2023/11/04 05:59:48;;;;;;;0.00;0.00;;;;;;;9.40;59.69;97983.22;5301384;27;20079;-94
2023/11/04 06:02:13;;;;;;;0.95;0.75;;;;;;;9.57;59.71;97983.13;5301287;27;20110;-92
2023/11/04 06:04:39;;;;;;;0.03;0.03;;;;;;;9.67;59.71;97986.03;5301329;27;20064;-94
2023/11/04 06:07:05;;;;;;;0.20;0.20;;;;;;;9.52;59.70;97985.16;5301390;27;20061;-94
2023/11/04 06:09:33;;;;;;;0.10;0.10;;;;;;;9.63;59.70;97997.53;5282759;27;20116;-94
2023/11/04 06:12:03;;;;;;;0.00;0.00;;;;;;;9.64;59.72;98000.03;5282610;27;20060;-95
2023/11/04 06:14:28;;;;;;;0.00;0.00;;;;;;;9.68;59.71;97998.94;5283575;27;20143;-95
2023/11/04 06:16:54;;;;;;;0.00;0.00;;;;;;;9.82;59.72;98003.37;5282800;27;20057;-95
2023/11/04 06:19:22;;;;;;;0.10;0.10;;;;;;;9.72;59.72;98005.66;5300925;27;20061;-93
2023/11/04 06:21:48;;;;;;;0.00;0.00;;;;;;;10.13;59.74;98000.66;5301314;27;20717;-94
2023/11/04 06:24:13;;;;;;;0.00;0.00;;;;;;;10.01;59.73;97992.75;5300822;27;20053;-93
2023/11/04 06:26:39;;;;;;;0.00;0.00;;;;;;;10.13;59.74;97984.22;5300848;27;20067;-94
2023/11/04 06:29:04;;;;;;;0.00;0.00;;;;;;;9.93;59.72;97972.38;5319072;27;20162;-93
2023/11/04 06:31:30;;;;;;;0.17;0.08;;;;;;;10.23;59.74;97955.97;5286538;27;20403;-94
2023/11/04 06:33:56;;;;;;;0.00;0.00;;;;;;;10.32;59.75;97951.06;5286509;27;20067;-94
2023/11/04 06:36:21;;;;;;;0.75;0.70;;;;;;;10.28;59.74;97953.94;5304615;26;20392;-92
2023/11/04 06:38:47;;;;;;;0.00;0.00;;;;;;;10.14;59.73;97975.50;5286629;27;20086;-94
2023/11/04 06:41:16;;;;;;;0.00;0.00;;;;;;;10.30;59.74;97978.09;5286311;27;20076;-92
2023/11/04 06:43:42;;;;;;;0.00;0.00;;;;;;;10.24;59.75;97976.69;5286716;27;20049;-93
2023/11/04 06:46:08;;;;;;;0.65;0.65;;;;;;;10.36;59.75;97973.34;5285806;27;20020;-93
2023/11/04 06:48:34;;;;;;;0.10;0.10;;;;;;;10.48;59.76;97982.19;5293520;27;20025;-93
2023/11/04 06:50:59;;;;;;;0.00;0.00;;;;;;;10.48;59.76;98002.19;5294356;27;20105;-95
2023/11/04 06:53:25;;;;;;;0.20;0.20;;;;;;;10.25;59.75;98006.97;5285776;27;27863;-94
2023/11/04 06:55:50;;;;;;;0.80;0.80;;;;;;;10.24;59.74;98007.06;5286373;27;20071;-93
2023/11/04 06:58:16;;;;;;;0.00;0.00;;;;;;;10.28;59.75;98011.97;5286224;27;20072;-93
2023/11/04 07:00:41;;;;;;;0.00;0.00;;;;;;;10.53;59.75;98026.16;5286487;27;20123;-94
2023/11/04 07:03:07;;;;;;;0.22;0.22;;;;;;;10.68;59.77;98033.87;5286580;27;20398;-94
2023/11/04 07:05:34;;;;;;;0.13;0.13;;;;;;;10.66;59.76;98016.69;5286548;27;20065;-93
2023/11/04 07:08:00;;;;;;;0.03;0.03;;;;;;;10.79;59.77;98002.00;5287280;27;20099;-93
2023/11/04 07:10:26;;;;;;;0.10;0.10;;;;;;;10.91;59.77;98016.06;5285689;27;20435;-92
2023/11/04 07:12:51;;;;;;;0.00;0.00;;;;;;;11.04;59.78;98016.97;5286367;27;20049;-92
2023/11/04 07:15:16;;;;;;;0.00;0.00;;;;;;;11.30;59.79;98015.34;5285891;27;20146;-95
2023/11/04 07:17:42;;;;;;;0.30;0.30;;;;;;;11.32;59.80;98016.91;5286552;27;20057;-93
2023/11/04 07:20:10;;;;;;;0.05;0.05;;;;;;;11.44;59.80;98020.53;5286451;27;20071;-93
2023/11/04 07:22:35;;;;;;;1.17;0.55;;;;;;;11.52;59.80;98027.84;5305234;26;20048;-94
2023/11/04 07:25:01;;;;;;;0.10;0.10;;;;;;;11.79;59.83;98028.72;5286067;27;20123;-94
2023/11/04 07:27:26;;;;;;;0.28;0.28;;;;;;;11.98;59.84;98031.84;5289568;26;20088;-94
2023/11/04 07:29:52;;;;;;;0.37;0.37;;;;;;;11.96;59.83;98035.47;5307840;26;20348;-94
2023/11/04 07:32:17;;;;;;;0.15;0.15;;;;;;;11.92;59.84;98031.41;5308398;26;20056;-94
2023/11/04 07:34:43;;;;;;;0.57;0.57;;;;;;;12.10;59.84;98034.59;5308219;26;20337;-94
2023/11/04 07:37:09;;;;;;;0.00;0.00;;;;;;;12.16;59.85;98034.19;5308085;26;20107;-92
2023/11/04 07:39:38;;;;;;;1.75;0.95;;;;;;;12.15;59.85;98038.56;5307733;26;20084;-94
2023/11/04 07:42:04;;;;;;;0.00;0.00;;;;;;;12.31;59.86;98037.56;5308321;26;20078;-91
2023/11/04 07:44:29;;;;;;;0.30;0.30;;;;;;;12.26;59.85;98035.22;5308041;26;20057;-93
2023/11/04 07:46:59;;;;;;;0.10;0.10;;;;;;;12.18;59.85;98045.34;5308132;26;20113;-93
2023/11/04 07:49:25;;;;;;;0.35;0.35;;;;;;;12.22;59.85;98045.03;5308701;26;20119;-93
2023/11/04 07:51:51;;;;;;;1.08;0.62;;;;;;;12.02;59.84;98055.94;5308509;26;20052;-92
2023/11/04 07:54:16;;;;;;;0.37;0.37;;;;;;;12.18;59.85;98048.78;5306916;26;20108;-93
2023/11/04 07:56:43;;;;;;;0.00;0.00;;;;;;;12.32;59.85;98055.72;5307732;26;20174;-93
2023/11/04 07:59:09;;;;;;;0.00;0.00;;;;;;;12.33;59.85;98059.16;5308363;26;20075;-93
2023/11/04 08:01:34;;;;;;;0.00;0.00;;;;;;;12.29;59.86;98061.12;5308188;26;20083;-94
2023/11/04 08:03:59;;;;;;;12.10;2.95;;;;;;;12.37;59.86;98064.06;5308205;26;20093;-92
2023/11/04 08:06:25;;;;;;;0.10;0.10;;;;;;;12.43;59.86;98061.06;5326283;26;20064;-94
2023/11/04 08:08:51;;;;;;;0.00;0.00;;;;;;;12.55;59.87;98059.41;5307747;26;20111;-93
2023/11/04 08:11:16;;;;;;;0.00;0.00;;;;;;;12.55;59.86;98051.59;5308481;26;20068;-93
2023/11/04 08:13:42;;;;;;;0.60;0.60;;;;;;;12.54;59.87;98050.75;5307498;26;20091;-94
2023/11/04 08:16:09;;;;;;;0.13;0.13;;;;;;;12.56;59.87;98043.66;5307017;26;20056;-93
2023/11/04 08:18:35;;;;;;;0.00;0.00;;;;;;;12.62;59.87;98042.41;5335510;26;20508;-92
2023/11/04 08:21:01;;;;;;;0.00;0.00;;;;;;;12.81;59.88;98042.00;5313522;26;20045;-94
2023/11/04 08:23:26;;;;;;;0.00;0.00;;;;;;;12.93;59.89;98046.34;5308554;26;20080;-93
2023/11/04 08:25:51;;;;;;;0.10;0.10;;;;;;;12.98;59.90;98039.03;5307659;26;20108;-93
2023/11/04 08:28:17;;;;;;;0.30;0.30;;;;;;;13.12;59.90;98030.25;5307280;26;21413;-93
2023/11/04 08:30:42;;;;;;;0.88;0.55;;;;;;;13.19;59.90;98028.91;5307900;26;20064;-93
2023/11/04 08:33:08;;;;;;;0.55;0.28;;;;;;;13.21;59.90;98020.03;5307459;26;25801;-93
2023/11/04 08:35:33;;;;;;;0.10;0.10;;;;;;;13.21;59.90;98024.41;5307731;26;20106;-92
2023/11/04 08:37:58;;;;;;;0.20;0.20;;;;;;;13.30;59.91;98030.78;5307031;26;24264;-93
2023/11/04 08:40:24;;;;;;;0.00;0.00;;;;;;;13.34;59.90;98022.62;5308096;26;20053;-93
2023/11/04 08:42:51;;;;;;;0.00;0.00;;;;;;;13.38;59.91;98031.06;5307606;26;24680;-93
2023/11/04 08:45:18;;;;;;;0.00;0.00;;;;;;;13.60;59.92;98028.59;5308671;26;20060;-93
2023/11/04 08:47:43;;;;;;;0.00;0.00;;;;;;;13.73;59.93;98025.97;5308243;26;20064;-92
2023/11/04 08:50:09;;;;;;;0.10;0.10;;;;;;;13.71;59.93;98026.03;5307894;26;20091;-93
2023/11/04 08:52:34;;;;;;;0.00;0.00;;;;;;;13.83;59.94;98012.09;5307756;26;20044;-92
2023/11/04 08:55:01;;;;;;;0.00;0.00;;;;;;;13.87;59.93;98001.41;5307489;26;20079;-92
2023/11/04 08:57:27;;;;;;;0.05;0.05;;;;;;;13.85;59.94;97995.44;5306716;26;20061;-92
2023/11/04 08:59:53;;;;;;;4.22;0.25;;;;;;;13.90;59.94;97999.38;5307644;26;20056;-91
2023/11/04 09:02:19;;;;;;;0.00;0.00;;;;;;;13.84;59.94;97999.84;5306592;26;20076;-92
2023/11/04 09:04:46;;;;;;;0.00;0.00;;;;;;;13.80;59.94;97988.78;5307745;26;20056;-88
2023/11/04 09:07:12;;;;;;;4.75;0.98;;;;;;;13.65;59.92;97995.13;5307741;26;20056;-90
2023/11/04 09:09:37;;;;;;;0.00;0.00;;;;;;;13.68;59.93;97994.88;5307684;26;20393;-90
2023/11/04 09:12:03;;;;;;;0.55;0.30;;;;;;;13.76;59.93;97986.50;5307259;26;20449;-89
2023/11/04 09:14:28;;;;;;;0.15;0.15;;;;;;;13.88;59.94;97988.22;5326018;26;20060;-89
2023/11/04 09:16:54;;;;;;;0.52;0.17;;;;;;;13.93;59.94;97967.78;5307587;26;20083;-89
2023/11/04 09:19:19;;;;;;;0.10;0.10;;;;;;;13.85;59.93;97972.75;5307353;26;20096;-88
2023/11/04 09:21:45;;;;;;;0.00;0.00;;;;;;;13.71;59.93;97965.91;5323583;26;23887;-88
2023/11/04 09:24:10;;;;;;;0.25;0.22;;;;;;;13.82;59.94;97973.81;5306311;26;20060;-87
2023/11/04 09:26:35;;;;;;;0.00;0.00;;;;;;;13.92;59.94;97962.66;5305473;26;20069;-88
2023/11/04 09:29:02;;;;;;;3.60;0.50;;;;;;;13.87;59.94;97960.38;5323294;26;20119;-87
2023/11/04 09:31:27;;;;;;;0.00;0.00;;;;;;;13.94;59.94;97956.38;5305124;26;20056;-87
2023/11/04 09:33:54;;;;;;;0.05;0.05;;;;;;;14.17;59.95;97944.19;5305610;26;20124;-87
2023/11/04 09:36:19;;;;;;;0.00;0.00;;;;;;;13.91;59.95;97943.50;5305791;26;20064;-88
2023/11/04 09:38:45;;;;;;;0.52;0.40;;;;;;;14.01;59.94;97954.97;5305172;26;20095;-89
2023/11/04 09:41:11;;;;;;;0.90;0.57;;;;;;;14.04;59.95;97949.50;5305952;26;20103;-88
2023/11/04 09:43:37;;;;;;;0.00;0.00;;;;;;;14.19;59.95;97944.06;5324366;26;20101;-90
2023/11/04 09:46:03;;;;;;;0.20;0.20;;;;;;;14.45;59.97;97945.59;5306407;26;20061;-89
2023/11/04 09:48:37;;;;;;;0.10;0.10;;;;;;;14.37;59.96;97958.37;5313257;26;20445;-90
2023/11/04 09:51:03;;;;;;;0.57;0.28;;;;;;;14.44;59.97;97954.41;5307234;26;20424;-92
2023/11/04 09:53:33;;;;;;;0.00;0.00;;;;;;;14.69;59.98;97953.34;5307423;26;20068;-90
2023/11/04 09:55:59;;;;;;;0.00;0.00;;;;;;;14.86;59.99;97946.78;5288700;26;20060;-92
2023/11/04 09:58:25;;;;;;;0.00;0.00;;;;;;;14.98;60.00;97935.34;5307001;26;20056;-89
2023/11/04 10:00:51;;;;;;;0.00;0.00;;;;;;;15.10;60.01;97930.91;5306440;26;20337;-90
2023/11/04 10:03:17;;;;;;;0.00;0.00;;;;;;;15.25;60.02;97927.09;5307530;26;20090;-90
2023/11/04 10:05:44;;;;;;;0.00;0.00;;;;;;;15.27;60.02;97922.56;5287323;26;20087;-90
2023/11/04 10:08:10;;;;;;;0.25;0.25;;;;;;;15.46;60.02;97922.75;5307892;26;20061;-90
2023/11/04 10:10:36;;;;;;;0.10;0.10;;;;;;;15.30;60.01;97922.31;5306428;26;20066;-90
2023/11/04 10:13:01;;;;;;;0.00;0.00;;;;;;;15.21;60.01;97918.66;5307073;26;20083;-91
2023/11/04 10:15:27;;;;;;;0.00;0.00;;;;;;;15.10;60.01;97913.41;5306938;26;20084;-90
2023/11/04 10:17:52;;;;;;;0.00;0.00;;;;;;;15.01;59.99;97911.53;5306954;26;20430;-90
2023/11/04 10:20:20;;;;;;;0.08;0.08;;;;;;;15.17;60.00;97906.75;5307111;26;20138;-90
2023/11/04 10:22:46;;;;;;;0.10;0.10;;;;;;;15.30;60.01;97896.09;5307397;26;20139;-89
2023/11/04 10:25:11;;;;;;;0.00;0.00;;;;;;;15.16;60.00;97904.25;5307324;26;20120;-89
2023/11/04 10:27:37;;;;;;;0.00;0.00;;;;;;;15.10;60.01;97900.31;5324936;26;26089;-91
2023/11/04 10:30:03;;;;;;;0.00;0.00;;;;;;;15.33;60.02;97894.06;5306875;26;20064;-91
2023/11/04 10:32:33;;;;;;;0.20;0.20;;;;;;;15.31;60.02;97887.28;5289369;26;20068;-92
2023/11/04 10:34:58;;;;;;;0.00;0.00;;;;;;;15.37;60.02;97886.75;5289953;26;20076;-91
2023/11/04 10:37:23;;;;;;;0.13;0.13;;;;;;;15.61;60.03;97886.59;5306802;26;25806;-91
2023/11/04 10:39:49;;;;;;;0.00;0.00;;;;;;;15.52;60.02;97884.69;5308007;26;22451;-90
2023/11/04 10:42:14;;;;;;;0.00;0.00;;;;;;;15.55;60.04;97887.06;5307734;26;20108;-91
2023/11/04 10:44:43;;;;;;;0.00;0.00;;;;;;;15.61;60.03;97887.44;5307958;26;20402;-90
2023/11/04 10:47:27;;;;;;;0.00;0.00;;;;;;;15.59;60.03;97881.47;5290728;26;20064;-92
2023/11/04 10:50:03;;;;;;;0.35;0.35;;;;;;;15.68;60.03;97885.16;5290897;26;20076;-91
2023/11/04 10:52:29;;;;;;;0.00;0.00;;;;;;;15.68;60.04;97882.53;5326670;26;20029;-92
2023/11/04 10:55:07;;;;;;;0.00;0.00;;;;;;;15.73;60.04;97877.72;5308201;26;20072;-91
2023/11/04 10:57:40;;;;;;;0.40;0.40;;;;;;;15.98;60.05;97879.12;5290100;26;20475;-90
2023/11/04 11:00:17;;;;;;;0.20;0.20;;;;;;;16.03;60.05;97869.06;5289496;26;20077;-89
2023/11/04 11:02:44;;;;;;;0.00;0.00;;;;;;;16.08;60.05;97872.16;5290366;26;20121;-90
2023/11/04 11:05:13;;;;;;;0.00;0.00;;;;;;;15.90;60.05;97871.09;5289786;26;20071;-91
2023/11/04 11:07:40;;;;;;;0.00;0.00;;;;;;;15.71;60.04;97870.94;5290240;26;20433;-91
2023/11/04 11:10:10;;;;;;;0.00;0.00;;;;;;;15.70;60.05;97864.88;5308107;26;20045;-91
2023/11/04 11:12:41;;;;;;;0.00;0.00;;;;;;;15.96;60.05;97860.06;5290339;26;20068;-92
2023/11/04 11:15:07;;;;;;;0.00;0.00;;;;;;;15.74;60.04;97850.53;5290785;26;20487;-90
2023/11/04 11:17:33;;;;;;;0.00;0.00;;;;;;;15.83;60.04;97854.16;5290138;26;20380;-90
2023/11/04 11:19:59;;;;;;;0.00;0.00;;;;;;;15.74;60.04;97852.31;5308511;26;20056;-92
2023/11/04 11:22:25;;;;;;;0.00;0.00;;;;;;;15.63;60.04;97847.97;5325952;26;20328;-92
2023/11/04 11:24:56;;;;;;;0.00;0.00;;;;;;;15.58;60.03;97850.97;5307727;26;20074;-92
2023/11/04 11:27:22;;;;;;;0.30;0.13;;;;;;;15.48;60.03;97842.16;5291030;26;20072;-92
2023/11/04 11:29:48;;;;;;;0.00;0.00;;;;;;;15.54;60.03;97838.19;5289498;26;20063;-92
2023/11/04 11:32:13;;;;;;;0.00;0.00;;;;;;;15.50;60.03;97839.41;5308296;26;20064;-90